Time;durP1;ratioP1;P1;durP2;ratioP2;P2;SDS_P1;SDS_P2;PMS_P1;PMS_P2;Temp;Humidity;BMP_temperature;BMP_pressure;BME280_temperature;BME280_humidity;BME280_pressure;Samples;Min_cycle;Max_cycle;Signal;HPM_P1;HPM_P2
2021/03/02 00:01:48;;;;;;;63.00;30.63;;;;;;;4.50;83.23;102353.34;4935225;29;20042;-52
2021/03/02 00:04:14;;;;;;;63.75;29.45;;;;;;;4.48;83.32;102344.53;4935728;29;20055;-55
2021/03/02 00:06:44;;;;;;;67.97;28.67;;;;;;;4.47;83.24;102349.22;4935489;29;20450;-50
2021/03/02 00:09:11;;;;;;;55.17;27.92;;;;;;;4.46;83.36;102352.22;4935613;29;20058;-55
2021/03/02 00:11:44;;;;;;;61.03;31.53;;;;;;;4.43;82.96;102350.81;4916588;29;20063;-58
2021/03/02 00:14:11;;;;;;;70.38;34.15;;;;;;;4.41;82.88;102347.53;4935064;29;20059;-55
2021/03/02 00:16:42;;;;;;;63.40;31.15;;;;;;;4.42;83.02;102348.34;4935310;29;20054;-57
2021/03/02 00:19:17;;;;;;;75.88;34.72;;;;;;;4.38;83.66;102349.97;4918801;29;20048;-49
2021/03/02 00:21:55;;;;;;;59.88;29.88;;;;;;;4.41;83.74;102344.78;4902483;29;20438;-54
2021/03/02 00:24:30;;;;;;;67.18;28.15;;;;;;;4.40;83.63;102342.28;4935315;29;20079;-53
2021/03/02 00:26:57;;;;;;;55.00;27.65;;;;;;;4.42;83.46;102345.63;4935062;29;20107;-56
2021/03/02 00:29:25;;;;;;;59.88;28.73;;;;;;;4.40;83.64;102339.53;4931965;29;20416;-56
2021/03/02 00:31:52;;;;;;;55.58;27.98;;;;;;;4.34;83.66;102348.84;4934007;29;20047;-55
2021/03/02 00:34:22;;;;;;;58.97;28.10;;;;;;;4.31;83.48;102345.53;4935012;29;20054;-56
2021/03/02 00:36:48;;;;;;;75.18;33.72;;;;;;;4.28;83.55;102343.34;4935088;29;20047;-54
2021/03/02 00:39:15;;;;;;;51.63;26.88;;;;;;;4.27;83.65;102338.09;4934890;29;20447;-54
2021/03/02 00:41:42;;;;;;;61.60;28.65;;;;;;;4.23;83.61;102342.47;4934044;29;20498;-54
2021/03/02 00:44:08;;;;;;;56.42;27.90;;;;;;;4.22;83.68;102344.38;4933929;29;20047;-55
2021/03/02 00:46:38;;;;;;;50.60;25.05;;;;;;;4.23;83.33;102347.97;4933471;29;20043;-55
2021/03/02 00:49:05;;;;;;;57.63;27.55;;;;;;;4.17;83.77;102349.84;4934657;29;20048;-54
2021/03/02 00:51:31;;;;;;;56.28;27.00;;;;;;;4.16;83.23;102342.69;4933550;29;20079;-56
2021/03/02 00:53:59;;;;;;;46.65;24.35;;;;;;;4.14;83.60;102352.28;4934583;29;20413;-54
2021/03/02 00:56:25;;;;;;;52.30;24.67;;;;;;;4.08;83.66;102351.41;4932628;29;20060;-55
2021/03/02 00:58:52;;;;;;;51.55;26.60;;;;;;;4.05;83.46;102353.88;4934588;29;20040;-55
2021/03/02 01:01:18;;;;;;;61.30;27.45;;;;;;;4.02;83.29;102346.16;4934088;29;20055;-57
2021/03/02 01:03:45;;;;;;;53.33;26.48;;;;;;;4.00;83.30;102345.56;4933183;29;20103;-56
2021/03/02 01:06:11;;;;;;;53.85;26.85;;;;;;;4.02;83.05;102349.75;4931746;29;20054;-54
2021/03/02 01:08:39;;;;;;;57.00;26.67;;;;;;;4.01;83.43;102347.25;4931841;29;20048;-54
2021/03/02 01:11:05;;;;;;;64.05;29.55;;;;;;;3.98;83.56;102345.84;4931557;29;20052;-50
2021/03/02 01:13:32;;;;;;;53.70;26.83;;;;;;;3.95;83.58;102360.06;4930860;29;20044;-56
2021/03/02 01:15:58;;;;;;;50.72;24.85;;;;;;;3.95;83.31;102351.84;4930229;29;20055;-55
2021/03/02 01:18:25;;;;;;;65.43;27.27;;;;;;;3.93;83.12;102353.22;4931967;29;20048;-57
2021/03/02 01:20:51;;;;;;;54.67;26.20;;;;;;;3.88;83.87;102355.91;4931956;29;20065;-51
2021/03/02 01:23:19;;;;;;;63.53;27.35;;;;;;;3.87;83.24;102360.56;4931746;29;20047;-55
2021/03/02 01:25:45;;;;;;;56.40;27.95;;;;;;;3.86;83.47;102361.66;4931154;29;20495;-56
2021/03/02 01:28:12;;;;;;;55.28;27.45;;;;;;;3.84;83.10;102355.59;4932354;29;20111;-55
2021/03/02 01:30:41;;;;;;;53.38;26.20;;;;;;;3.79;83.41;102355.56;4930965;29;20059;-57
2021/03/02 01:33:08;;;;;;;55.58;26.63;;;;;;;3.76;83.45;102352.53;4932693;29;20051;-57
2021/03/02 01:35:34;;;;;;;47.25;25.17;;;;;;;3.76;83.48;102356.06;4933827;29;20134;-55
2021/03/02 01:38:01;;;;;;;62.90;26.38;;;;;;;3.81;83.22;102347.91;4933608;29;20048;-54
2021/03/02 01:40:28;;;;;;;49.85;25.55;;;;;;;3.83;83.00;102350.38;4934154;29;20056;-54
2021/03/02 01:42:55;;;;;;;48.97;23.73;;;;;;;3.77;83.32;102360.47;4934049;29;20043;-54
2021/03/02 01:45:21;;;;;;;49.67;24.95;;;;;;;3.77;83.44;102354.16;4933496;29;20052;-55
2021/03/02 01:47:52;;;;;;;56.78;26.42;;;;;;;3.74;83.21;102358.25;4933697;29;20054;-52
2021/03/02 01:50:20;;;;;;;50.25;26.98;;;;;;;3.75;83.08;102350.88;4933498;29;20486;-56
2021/03/02 01:52:47;;;;;;;49.33;25.80;;;;;;;3.74;82.71;102352.78;4933217;29;20047;-54
2021/03/02 01:55:17;;;;;;;53.97;28.20;;;;;;;3.67;83.06;102346.69;4926895;29;20388;-52
2021/03/02 01:57:44;;;;;;;65.72;29.10;;;;;;;3.66;83.15;102353.25;4929008;29;20494;-56
2021/03/02 02:00:30;;;;;;;57.47;27.00;;;;;;;3.59;82.87;102352.66;4934056;29;20111;-56
2021/03/02 02:03:54;;;;;;;50.58;26.52;;;;;;;3.55;83.14;102351.50;4914068;29;20391;-53
2021/03/02 02:06:45;;;;;;;52.85;26.13;;;;;;;3.57;82.75;102349.34;4855837;29;20065;-55
2021/03/02 02:09:29;;;;;;;50.15;26.70;;;;;;;3.59;82.76;102355.38;4840833;29;20453;-55
2021/03/02 02:12:06;;;;;;;51.75;26.02;;;;;;;3.55;82.55;102359.72;4905753;29;20060;-53
2021/03/02 02:15:04;;;;;;;57.15;28.30;;;;;;;3.39;82.85;102357.94;4914989;29;20510;-54
2021/03/02 02:17:38;;;;;;;69.97;33.33;;;;;;;3.39;82.81;102347.78;4931141;29;20043;-56
2021/03/02 02:20:25;;;;;;;59.67;29.60;;;;;;;3.28;82.93;102345.22;4934119;29;20063;-56
2021/03/02 02:23:03;;;;;;;65.20;33.00;;;;;;;3.28;83.25;102347.94;4922503;29;20052;-57
2021/03/02 02:25:38;;;;;;;68.50;32.50;;;;;;;3.25;83.19;102343.00;4928977;29;20062;-54
2021/03/02 02:28:07;;;;;;;59.15;28.92;;;;;;;3.25;82.61;102343.81;4936910;29;20058;-58
2021/03/02 02:30:35;;;;;;;63.97;30.40;;;;;;;3.29;82.49;102341.38;4918118;29;20060;-54
2021/03/02 02:33:03;;;;;;;64.78;31.90;;;;;;;3.23;82.68;102347.91;4934764;29;20054;-54
2021/03/02 02:35:31;;;;;;;65.25;30.70;;;;;;;3.21;82.56;102344.56;4935458;29;20040;-56
2021/03/02 02:37:59;;;;;;;64.65;31.17;;;;;;;3.16;82.24;102347.25;4937340;29;20071;-56
2021/03/02 02:40:26;;;;;;;58.58;28.98;;;;;;;3.06;82.96;102348.81;4935956;29;20075;-53
2021/03/02 02:42:53;;;;;;;60.50;29.80;;;;;;;2.99;82.90;102345.41;4936408;29;20126;-56
2021/03/02 02:45:21;;;;;;;68.47;31.08;;;;;;;3.05;82.84;102344.41;4936376;29;20051;-53
2021/03/02 02:47:49;;;;;;;57.72;28.90;;;;;;;3.06;82.75;102346.06;4936891;29;20131;-52
2021/03/02 02:50:17;;;;;;;55.67;27.75;;;;;;;3.06;82.60;102348.81;4919068;29;20494;-56
2021/03/02 02:52:46;;;;;;;57.45;27.92;;;;;;;2.99;82.26;102345.41;4937223;29;20044;-55
2021/03/02 02:55:15;;;;;;;61.40;29.92;;;;;;;2.87;82.83;102336.53;4935800;29;20146;-54
2021/03/02 02:57:44;;;;;;;48.58;25.83;;;;;;;2.79;82.93;102338.88;4937087;29;20052;-56
2021/03/02 03:00:11;;;;;;;52.60;28.35;;;;;;;2.83;82.66;102332.66;4936310;29;20054;-58
2021/03/02 03:02:48;;;;;;;60.25;29.33;;;;;;;2.82;82.62;102320.06;4932849;29;20051;-53
2021/03/02 03:05:21;;;;;;;50.95;26.15;;;;;;;2.81;82.39;102321.13;4923414;29;20040;-56
2021/03/02 03:07:56;;;;;;;54.33;27.65;;;;;;;2.79;82.40;102320.56;4931799;29;20091;-49
2021/03/02 03:10:26;;;;;;;59.97;29.00;;;;;;;2.77;82.38;102314.53;4936161;29;20035;-53
2021/03/02 03:12:54;;;;;;;51.20;24.77;;;;;;;2.77;82.56;102325.47;4935041;29;20134;-57
2021/03/02 03:15:23;;;;;;;52.03;24.83;;;;;;;2.71;82.71;102323.75;4936118;29;20127;-56
2021/03/02 03:17:53;;;;;;;51.60;24.65;;;;;;;2.67;82.51;102316.31;4934986;29;20039;-55
2021/03/02 03:20:22;;;;;;;46.40;24.75;;;;;;;2.71;82.56;102320.19;4936621;29;20051;-55
2021/03/02 03:22:49;;;;;;;43.80;22.30;;;;;;;2.78;82.48;102313.44;4934647;29;20122;-54
2021/03/02 03:25:16;;;;;;;45.35;23.35;;;;;;;2.83;82.42;102320.91;4935601;29;20409;-53
2021/03/02 03:27:53;;;;;;;49.63;22.45;;;;;;;2.80;82.19;102316.78;4935030;29;20134;-57
2021/03/02 03:30:22;;;;;;;42.50;24.17;;;;;;;2.81;82.27;102323.88;4936006;29;20138;-57
2021/03/02 03:32:55;;;;;;;52.30;25.58;;;;;;;2.77;81.92;102316.44;4931718;29;20482;-57
2021/03/02 03:35:23;;;;;;;44.17;24.90;;;;;;;2.82;81.81;102322.81;4934330;29;20047;-54
2021/03/02 03:37:50;;;;;;;49.03;24.38;;;;;;;2.86;81.73;102325.88;4935612;29;20071;-56
2021/03/02 03:40:16;;;;;;;53.78;25.50;;;;;;;2.83;81.35;102318.97;4934952;29;20078;-53
2021/03/02 03:42:43;;;;;;;48.70;23.10;;;;;;;2.73;81.71;102323.50;4935135;29;20482;-56
2021/03/02 03:45:11;;;;;;;58.78;26.38;;;;;;;2.63;81.93;102316.00;4933979;29;20042;-56
2021/03/02 03:47:38;;;;;;;43.25;22.45;;;;;;;2.64;81.75;102314.09;4930438;29;20047;-56
2021/03/02 03:50:07;;;;;;;43.85;24.08;;;;;;;2.69;81.55;102317.72;4935100;29;20410;-56
2021/03/02 03:52:36;;;;;;;48.13;24.98;;;;;;;2.61;81.69;102311.88;4935155;29;20058;-52
2021/03/02 03:55:05;;;;;;;42.35;21.58;;;;;;;2.51;81.95;102301.63;4934016;29;20090;-55
2021/03/02 03:57:32;;;;;;;45.63;23.92;;;;;;;2.47;82.21;102312.25;4935269;29;20579;-55
2021/03/02 03:59:59;;;;;;;48.45;26.50;;;;;;;2.42;81.92;102314.91;4935225;29;20043;-54
2021/03/02 04:02:27;;;;;;;58.13;27.90;;;;;;;2.40;82.18;102313.50;4925182;29;20147;-57
2021/03/02 04:04:54;;;;;;;47.80;23.85;;;;;;;2.40;82.05;102310.78;4917611;29;20056;-55
2021/03/02 04:07:21;;;;;;;41.20;21.80;;;;;;;2.32;82.35;102316.69;4931913;29;20143;-54
2021/03/02 04:09:48;;;;;;;84.72;26.45;;;;;;;2.31;82.49;102320.47;4934325;29;20458;-56
2021/03/02 04:12:14;;;;;;;120.15;27.98;;;;;;;2.30;82.88;102318.84;4933618;29;20075;-57
2021/03/02 04:14:42;;;;;;;95.32;27.15;;;;;;;2.31;82.84;102334.13;4934524;29;20043;-57
2021/03/02 04:17:11;;;;;;;142.32;31.98;;;;;;;2.29;82.98;102319.91;4933847;29;20063;-53
2021/03/02 04:19:38;;;;;;;130.95;27.38;;;;;;;2.31;82.68;102317.75;4935036;29;20051;-54
2021/03/02 04:22:05;;;;;;;79.10;25.27;;;;;;;2.32;82.75;102328.44;4933856;29;20043;-54
2021/03/02 04:24:31;;;;;;;105.80;26.38;;;;;;;2.32;82.58;102325.69;4935183;29;20142;-54
2021/03/02 04:26:57;;;;;;;83.70;23.40;;;;;;;2.27;82.94;102327.53;4934763;29;20566;-57
2021/03/02 04:29:24;;;;;;;94.38;25.88;;;;;;;2.31;82.71;102325.94;4934391;29;20458;-57
2021/03/02 04:31:50;;;;;;;62.15;24.92;;;;;;;2.29;nan;102328.09;4934583;29;20431;-56
2021/03/02 04:34:17;;;;;;;84.10;25.50;;;;;;;2.24;82.45;102323.41;4933868;29;20039;-55
2021/03/02 04:36:43;;;;;;;74.70;24.27;;;;;;;2.18;82.76;102329.84;4934780;29;20054;-56
2021/03/02 04:39:10;;;;;;;71.65;24.50;;;;;;;2.11;82.91;102322.91;4933043;29;20065;-57
2021/03/02 04:41:36;;;;;;;80.50;24.45;;;;;;;2.09;83.30;102319.63;4934619;29;20520;-57
2021/03/02 04:44:02;;;;;;;55.60;22.08;;;;;;;2.09;83.05;102314.97;4934487;29;20600;-55
2021/03/02 04:46:29;;;;;;;67.40;24.63;;;;;;;2.09;82.77;102317.69;4933745;29;20087;-57
2021/03/02 04:48:56;;;;;;;47.97;20.77;;;;;;;2.06;82.96;102325.59;4933153;29;20454;-55
2021/03/02 04:51:22;;;;;;;44.33;20.70;;;;;;;2.02;83.09;102319.78;4934697;29;20062;-57
2021/03/02 04:53:48;;;;;;;42.17;20.35;;;;;;;2.00;82.98;102323.84;4934279;29;20047;-56
2021/03/02 04:56:15;;;;;;;42.25;18.88;;;;;;;2.02;82.90;102319.78;4916972;29;20454;-58
2021/03/02 04:58:41;;;;;;;41.42;19.05;;;;;;;2.03;82.74;102321.44;4934058;29;20079;-54
2021/03/02 05:01:07;;;;;;;29.80;16.17;;;;;;;1.96;82.97;102319.97;4934084;29;20134;-57
2021/03/02 05:03:34;;;;;;;32.70;16.00;;;;;;;1.93;82.96;102323.19;4934255;29;20059;-53
2021/03/02 05:06:00;;;;;;;29.58;17.30;;;;;;;1.91;82.94;102311.69;4933748;29;20055;-57
2021/03/02 05:08:26;;;;;;;31.75;14.85;;;;;;;1.91;82.74;102328.09;4933911;29;20130;-56
2021/03/02 05:10:54;;;;;;;28.05;14.88;;;;;;;1.94;82.49;102316.63;4933107;29;20130;-57
2021/03/02 05:13:21;;;;;;;25.63;14.65;;;;;;;1.97;82.54;102318.88;4934378;29;20083;-57
2021/03/02 05:16:08;;;;;;;26.50;15.85;;;;;;;1.94;82.33;102317.47;4919438;29;20387;-57
2021/03/02 05:18:35;;;;;;;26.10;15.25;;;;;;;1.88;82.11;102328.56;4932627;29;20044;-56
2021/03/02 05:21:02;;;;;;;29.90;15.18;;;;;;;1.77;82.61;102328.38;4934230;29;20095;-55
2021/03/02 05:23:28;;;;;;;29.02;15.38;;;;;;;1.69;82.47;102331.56;4933955;29;20057;-54
2021/03/02 05:25:55;;;;;;;26.92;14.75;;;;;;;1.62;82.56;102339.06;4933440;29;20051;-55
2021/03/02 05:28:21;;;;;;;29.23;15.10;;;;;;;1.64;82.77;102333.38;4933309;29;20090;-58
2021/03/02 05:30:47;;;;;;;27.77;15.15;;;;;;;1.74;82.57;102334.38;4933934;29;20051;-58
2021/03/02 05:33:13;;;;;;;34.33;17.63;;;;;;;1.70;82.43;102338.66;4932656;29;20050;-54
2021/03/02 05:35:40;;;;;;;25.05;14.98;;;;;;;1.69;82.43;102337.03;4933251;29;20512;-57
2021/03/02 05:38:06;;;;;;;26.45;14.27;;;;;;;1.73;82.35;102337.34;4933653;29;20092;-57
2021/03/02 05:40:32;;;;;;;23.73;14.00;;;;;;;1.73;82.09;102327.25;4933762;29;20068;-54
2021/03/02 05:42:59;;;;;;;24.52;13.32;;;;;;;1.72;81.77;102331.03;4932865;29;20075;-57
2021/03/02 05:45:25;;;;;;;27.27;13.88;;;;;;;1.65;82.12;102330.38;4933526;29;20131;-54
2021/03/02 05:47:52;;;;;;;22.30;13.85;;;;;;;1.60;82.09;102327.56;4932340;29;20453;-56
2021/03/02 05:50:19;;;;;;;26.80;13.77;;;;;;;1.63;81.90;102332.53;4933754;29;20062;-55
2021/03/02 05:52:46;;;;;;;24.17;14.20;;;;;;;1.66;81.74;102331.22;4933674;29;20054;-52
2021/03/02 05:55:13;;;;;;;25.75;14.10;;;;;;;1.63;82.09;102335.28;4933248;29;20067;-53
2021/03/02 05:57:39;;;;;;;25.38;14.05;;;;;;;1.64;82.11;102338.84;4933465;29;20412;-58
2021/03/02 06:00:06;;;;;;;27.67;13.30;;;;;;;1.56;82.01;102331.84;4935940;29;20119;-58
2021/03/02 06:02:32;;;;;;;22.45;13.77;;;;;;;1.50;82.44;102326.56;4936713;29;20051;-53
2021/03/02 06:04:59;;;;;;;23.08;13.32;;;;;;;1.52;82.14;102325.25;4937507;29;20090;-55
2021/03/02 06:07:25;;;;;;;26.00;14.07;;;;;;;1.54;81.94;102334.00;4937286;29;20122;-57
2021/03/02 06:09:51;;;;;;;24.65;13.55;;;;;;;1.49;81.91;102330.34;4935907;29;20071;-55
2021/03/02 06:12:18;;;;;;;28.08;14.75;;;;;;;1.47;82.25;102329.78;4925589;29;20051;-58
2021/03/02 06:14:45;;;;;;;25.00;13.20;;;;;;;1.50;81.93;102337.47;4936801;29;20044;-56
2021/03/02 06:17:11;;;;;;;23.63;13.52;;;;;;;1.52;82.03;102341.63;4935446;29;20107;-51
2021/03/02 06:19:44;;;;;;;28.88;13.40;;;;;;;1.54;82.11;102336.75;4937579;29;20135;-57
2021/03/02 06:22:30;;;;;;;31.52;15.30;;;;;;;1.57;81.61;102344.44;4937620;29;20060;-58
2021/03/02 06:24:58;;;;;;;20.77;12.77;;;;;;;1.52;81.84;102340.78;4936756;29;20062;-53
2021/03/02 06:27:24;;;;;;;25.60;13.52;;;;;;;1.52;81.90;102336.16;4936311;29;20083;-58
2021/03/02 06:30:08;;;;;;;31.90;17.17;;;;;;;1.48;82.58;102339.63;4938391;29;20079;-58
2021/03/02 06:32:53;;;;;;;26.52;14.10;;;;;;;1.61;82.14;102333.88;4935974;29;20071;-58
2021/03/02 06:35:45;;;;;;;26.17;13.40;;;;;;;1.65;82.12;102345.94;4933288;29;20036;-58
2021/03/02 06:38:25;;;;;;;27.92;13.80;;;;;;;1.69;81.70;102342.47;4935631;29;20048;-59
2021/03/02 06:40:51;;;;;;;20.48;11.25;;;;;;;1.66;81.72;102342.97;4937046;29;20063;-58
2021/03/02 06:43:50;;;;;;;27.98;12.35;;;;;;;1.67;82.37;102350.06;4935663;29;20139;-55
2021/03/02 06:46:18;;;;;;;20.80;11.70;;;;;;;1.76;81.72;102354.06;4876505;29;20127;-56
2021/03/02 06:48:50;;;;;;;27.23;13.27;;;;;;;1.74;82.00;102350.75;4936177;29;20050;-55
2021/03/02 06:51:27;;;;;;;26.17;12.27;;;;;;;1.72;81.90;102352.88;4937038;29;20047;-58
2021/03/02 06:54:17;;;;;;;46.88;13.30;;;;;;;1.64;82.25;102353.28;4936245;29;20047;-57
2021/03/02 06:56:44;;;;;;;21.58;12.27;;;;;;;1.65;82.42;102363.13;4919177;29;20050;-59
2021/03/02 06:59:15;;;;;;;29.13;15.23;;;;;;;1.72;82.53;102365.72;4936565;29;20111;-57
2021/03/02 07:01:47;;;;;;;28.77;13.98;;;;;;;1.80;82.16;102359.88;4935523;29;20056;-59
2021/03/02 07:04:15;;;;;;;;;;;;;;;1.81;82.25;102361.50;4935691;29;20099;-58
2021/03/02 07:06:42;;;;;;;28.92;13.95;;;;;;;1.80;82.12;102366.13;4935061;29;19962;-57
2021/03/02 07:09:11;;;;;;;40.08;13.75;;;;;;;1.84;82.35;102366.47;4919699;29;20086;-57
2021/03/02 07:11:39;;;;;;;83.60;17.08;;;;;;;1.84;82.53;102369.19;4934424;29;20098;-59
2021/03/02 07:14:09;;;;;;;70.78;18.48;;;;;;;1.84;82.43;102366.47;4935758;29;20154;-59
2021/03/02 07:16:38;;;;;;;126.18;20.42;;;;;;;1.88;82.66;102366.81;4934978;29;20043;-58
2021/03/02 07:19:06;;;;;;;199.75;24.40;;;;;;;1.82;82.63;102369.47;4936038;29;20074;-59
2021/03/02 07:21:37;;;;;;;57.22;16.38;;;;;;;1.79;82.73;102375.41;4934804;29;20051;-59
2021/03/02 07:24:06;;;;;;;111.05;20.45;;;;;;;1.77;83.17;102377.53;4936612;29;20111;-57
2021/03/02 07:26:33;;;;;;;63.17;18.40;;;;;;;1.77;83.36;102377.53;4934971;29;20178;-55
2021/03/02 07:29:02;;;;;;;95.45;20.45;;;;;;;1.76;83.32;102375.06;4936008;29;20046;-59
2021/03/02 07:31:30;;;;;;;77.93;18.50;;;;;;;1.72;83.40;102377.44;4935711;29;20165;-59
2021/03/02 07:34:00;;;;;;;56.22;17.25;;;;;;;1.72;83.61;102377.44;4935282;29;20055;-59
2021/03/02 07:36:34;;;;;;;68.07;16.92;;;;;;;1.82;83.47;102371.34;4935297;29;20043;-60
2021/03/02 07:39:20;;;;;;;98.13;18.92;;;;;;;1.85;83.40;102382.59;4934358;29;20047;-59
2021/03/02 07:41:48;;;;;;;56.40;17.90;;;;;;;1.92;83.10;102379.72;4935025;29;20135;-56
2021/03/02 07:44:15;;;;;;;88.85;19.20;;;;;;;2.00;83.24;102384.75;4914891;29;20051;-59
2021/03/02 07:46:44;;;;;;;91.18;19.80;;;;;;;1.96;83.11;102385.50;4919923;29;20071;-57
2021/03/02 07:49:23;;;;;;;84.00;18.33;;;;;;;1.93;83.29;102386.00;4935236;29;20079;-57
2021/03/02 07:52:11;;;;;;;102.40;20.38;;;;;;;2.01;83.62;102382.88;4934901;29;20124;-59
2021/03/02 07:54:38;;;;;;;59.65;16.85;;;;;;;2.05;83.26;102384.00;4912199;29;20396;-59
2021/03/02 07:57:18;;;;;;;53.38;16.85;;;;;;;2.11;83.30;102385.75;4934688;29;20052;-60
2021/03/02 07:59:46;;;;;;;60.72;18.58;;;;;;;2.10;83.13;102390.38;4917346;29;20067;-58
2021/03/02 08:02:17;;;;;;;;;;;;;;;2.06;83.45;102391.13;4913684;29;20051;-57
2021/03/02 08:04:51;;;;;;;35.75;15.38;;;;;;;2.08;83.78;102383.50;4930823;29;20616;-57
2021/03/02 08:07:17;;;;;;;37.25;14.57;;;;;;;2.17;83.79;102392.97;4932224;29;20043;-53
2021/03/02 08:09:43;;;;;;;29.75;14.50;;;;;;;2.20;83.39;102381.50;4932611;29;20134;-58
2021/03/02 08:12:33;;;;;;;33.45;14.55;;;;;;;2.26;83.51;102389.56;4932302;29;20490;-55
2021/03/02 08:15:20;;;;;;;29.65;15.25;;;;;;;2.31;83.56;102383.31;4917810;29;20056;-56
2021/03/02 08:17:47;;;;;;;31.30;14.30;;;;;;;2.39;84.04;102391.09;4920745;29;20040;-60
2021/03/02 08:20:14;;;;;;;32.55;15.55;;;;;;;2.50;83.70;102405.75;4925040;29;20060;-61
2021/03/02 08:22:40;;;;;;;39.03;18.38;;;;;;;2.58;83.82;102406.16;4915339;29;20511;-61
2021/03/02 08:25:13;;;;;;;35.50;16.20;;;;;;;2.66;83.41;102413.09;4933762;29;20048;-61
2021/03/02 08:27:50;;;;;;;36.67;18.13;;;;;;;2.71;83.49;102407.69;4925808;29;20131;-61
2021/03/02 08:30:37;;;;;;;33.70;16.35;;;;;;;2.73;83.71;102403.63;4924109;29;20652;-61
2021/03/02 08:33:10;;;;;;;40.97;16.55;;;;;;;2.80;83.75;102417.13;4924105;29;20573;-60
2021/03/02 08:35:42;;;;;;;42.97;16.73;;;;;;;2.87;83.48;102415.84;4924133;29;20056;-60
2021/03/02 08:38:13;;;;;;;42.90;19.55;;;;;;;2.93;83.59;102414.84;4928562;29;20051;-61
2021/03/02 08:40:45;;;;;;;42.20;17.45;;;;;;;2.97;83.47;102412.41;4890673;29;20051;-60
2021/03/02 08:43:25;;;;;;;39.45;17.50;;;;;;;3.01;83.74;102416.31;4907460;29;20059;-58
2021/03/02 08:45:56;;;;;;;39.25;17.88;;;;;;;3.05;83.81;102423.75;4931002;29;20068;-59
2021/03/02 08:48:39;;;;;;;43.97;17.33;;;;;;;3.15;83.77;102414.03;4930768;29;20067;-60
2021/03/02 08:51:08;;;;;;;45.30;18.38;;;;;;;3.18;83.76;102410.78;4932102;29;20068;-58
2021/03/02 08:53:40;;;;;;;44.28;18.73;;;;;;;3.25;83.58;102422.34;4914179;29;20520;-59
2021/03/02 08:56:19;;;;;;;48.53;20.38;;;;;;;3.31;83.66;102415.88;4927012;29;20044;-57
2021/03/02 08:58:52;;;;;;;39.38;17.08;;;;;;;3.35;84.15;102419.72;4924749;29;20161;-57
2021/03/02 09:01:21;;;;;;;32.13;16.13;;;;;;;3.38;84.01;102417.31;4912970;29;20130;-57
2021/03/02 09:03:50;;;;;;;46.85;19.25;;;;;;;3.44;83.66;102419.00;4923505;29;20043;-57
2021/03/02 09:06:25;;;;;;;38.92;16.85;;;;;;;3.49;83.83;102423.75;4913281;29;20113;-54
2021/03/02 09:09:01;;;;;;;39.83;16.70;;;;;;;3.51;84.13;102430.59;4920965;29;20091;-58
2021/03/02 09:11:38;;;;;;;44.03;18.65;;;;;;;3.58;84.06;102428.47;4929725;29;20071;-58
2021/03/02 09:14:17;;;;;;;48.00;18.30;;;;;;;3.64;84.21;102429.38;4926958;29;20134;-58
2021/03/02 09:16:49;;;;;;;45.17;21.15;;;;;;;3.71;84.25;102419.03;4930073;29;20708;-60
2021/03/02 09:19:30;;;;;;;50.03;22.33;;;;;;;3.79;84.33;102426.78;4926437;29;20043;-60
2021/03/02 09:22:09;;;;;;;48.25;22.73;;;;;;;3.88;83.89;102427.13;4932028;29;20057;-59
2021/03/02 09:24:54;;;;;;;51.03;23.17;;;;;;;3.92;83.92;102423.63;4932318;29;20056;-59
2021/03/02 09:27:21;;;;;;;52.25;23.70;;;;;;;3.97;84.49;102429.13;4922633;29;20102;-55
2021/03/02 09:29:49;;;;;;;64.85;29.02;;;;;;;4.02;84.41;102431.13;4924476;29;20562;-60
2021/03/02 09:32:28;;;;;;;57.33;26.65;;;;;;;4.07;84.27;102421.03;4931798;29;20048;-61
2021/03/02 09:34:57;;;;;;;51.72;24.50;;;;;;;4.11;84.44;102422.16;4929283;29;20047;-59
2021/03/02 09:37:23;;;;;;;55.65;23.42;;;;;;;4.19;84.29;102424.41;4929381;29;20126;-60
2021/03/02 09:40:05;;;;;;;55.42;23.83;;;;;;;4.23;84.72;102425.56;4929626;29;20044;-58
2021/03/02 09:42:34;;;;;;;58.72;23.17;;;;;;;4.27;84.74;102421.19;4920831;29;20465;-57
2021/03/02 09:45:10;;;;;;;53.88;24.80;;;;;;;4.31;84.50;102422.28;4913604;29;20071;-57
2021/03/02 09:47:37;;;;;;;60.60;24.65;;;;;;;4.38;84.84;102427.56;4926610;29;20127;-58
2021/03/02 09:50:12;;;;;;;59.67;24.88;;;;;;;4.45;84.56;102432.84;4932058;29;20054;-56
2021/03/02 09:52:46;;;;;;;62.17;26.38;;;;;;;4.48;84.84;102437.78;4930401;29;20048;-59
2021/03/02 09:55:18;;;;;;;65.55;30.92;;;;;;;4.51;84.91;102438.09;4930923;29;20043;-58
2021/03/02 09:57:59;;;;;;;61.63;27.08;;;;;;;4.59;84.82;102439.50;4929305;29;20047;-57
2021/03/02 10:00:32;;;;;;;59.38;25.00;;;;;;;4.65;84.84;102438.47;4925622;29;20075;-54
2021/03/02 10:03:00;;;;;;;59.28;27.30;;;;;;;4.72;85.13;102425.31;4906789;29;20043;-58
2021/03/02 10:05:42;;;;;;;65.97;28.92;;;;;;;4.82;85.03;102439.94;4927907;29;20127;-59
2021/03/02 10:08:38;;;;;;;72.13;28.25;;;;;;;4.92;85.27;102439.19;4913235;29;20054;-59
2021/03/02 10:11:11;;;;;;;68.45;29.60;;;;;;;5.01;85.32;102437.56;4920481;29;20083;-58
2021/03/02 10:13:55;;;;;;;73.57;27.50;;;;;;;5.09;85.50;102431.56;4931572;29;20068;-58
2021/03/02 10:16:31;;;;;;;70.82;30.17;;;;;;;5.19;85.20;102434.34;4907453;29;20079;-58
2021/03/02 10:19:14;;;;;;;75.13;31.15;;;;;;;5.30;85.39;102435.22;4907116;29;20090;-56
2021/03/02 10:21:45;;;;;;;77.85;30.48;;;;;;;5.38;85.59;102432.78;4915760;29;20048;-59
2021/03/02 10:24:17;;;;;;;62.65;28.67;;;;;;;5.50;85.58;102440.81;4929688;29;20049;-60
2021/03/02 10:26:44;;;;;;;;;;;;;;;5.61;85.76;102441.66;4908501;29;20051;-56
2021/03/02 10:29:11;;;;;;;74.28;30.30;;;;;;;5.78;85.68;102431.22;4926830;29;19983;-58
2021/03/02 10:31:37;;;;;;;73.63;31.45;;;;;;;5.93;85.40;102445.06;4931214;29;20043;-57
2021/03/02 10:34:06;;;;;;;71.82;30.23;;;;;;;6.09;85.63;102435.69;4913841;29;20044;-58
2021/03/02 10:36:35;;;;;;;72.93;30.75;;;;;;;6.20;85.79;102445.59;4927734;29;20753;-56
2021/03/02 10:39:10;;;;;;;83.35;33.72;;;;;;;6.27;85.76;102451.69;4921485;29;20434;-56
2021/03/02 10:41:36;;;;;;;69.18;30.48;;;;;;;6.32;85.80;102448.94;4931484;29;20047;-58
2021/03/02 10:44:04;;;;;;;77.60;33.90;;;;;;;6.40;85.57;102456.63;4929200;29;20058;-57
2021/03/02 10:46:31;;;;;;;83.75;34.47;;;;;;;6.51;85.48;102451.94;4931716;29;20103;-58
2021/03/02 10:48:58;;;;;;;80.63;36.03;;;;;;;6.58;85.41;102450.56;4935733;29;20130;-55
2021/03/02 10:51:26;;;;;;;82.55;35.88;;;;;;;6.64;85.60;102452.22;4934442;29;20044;-56
2021/03/02 10:53:52;;;;;;;68.80;31.63;;;;;;;6.66;85.62;102446.41;4927124;29;20150;-56
2021/03/02 10:56:19;;;;;;;85.40;36.72;;;;;;;6.70;85.33;102442.00;4934013;29;20052;-56
2021/03/02 10:58:47;;;;;;;80.95;37.67;;;;;;;6.75;85.61;102437.31;4935156;29;20068;-57
2021/03/02 11:01:18;;;;;;;77.80;36.80;;;;;;;6.79;85.40;102447.75;4918869;29;20099;-57
2021/03/02 11:03:44;;;;;;;75.93;35.53;;;;;;;6.81;85.44;102445.53;4917761;29;20091;-55
2021/03/02 11:06:12;;;;;;;78.75;36.05;;;;;;;6.85;85.17;102436.47;4934879;29;20052;-55
2021/03/02 11:08:56;;;;;;;75.43;34.15;;;;;;;6.91;85.05;102434.53;4916280;29;20150;-57
2021/03/02 11:11:26;;;;;;;78.28;35.33;;;;;;;6.93;85.23;102432.31;4933729;29;20043;-56
2021/03/02 11:13:52;;;;;;;73.72;35.95;;;;;;;6.94;85.18;102444.97;4934740;29;20050;-51
2021/03/02 11:16:18;;;;;;;78.72;36.33;;;;;;;6.93;84.96;102444.16;4933938;29;20130;-55
2021/03/02 11:18:45;;;;;;;72.55;32.97;;;;;;;6.95;85.02;102441.13;4934583;29;20114;-54
2021/03/02 11:21:12;;;;;;;77.00;36.00;;;;;;;6.95;84.86;102447.44;4934395;29;20052;-54
2021/03/02 11:23:40;;;;;;;77.50;34.15;;;;;;;7.00;84.98;102452.13;4934288;29;20790;-56
2021/03/02 11:26:07;;;;;;;66.93;34.03;;;;;;;7.05;85.06;102452.09;4934040;29;20100;-56
2021/03/02 11:28:34;;;;;;;72.38;33.20;;;;;;;7.09;85.00;102450.44;4934433;29;20047;-57
2021/03/02 11:31:00;;;;;;;75.93;32.28;;;;;;;7.09;84.55;102448.53;4933110;29;20064;-53
2021/03/02 11:33:29;;;;;;;71.25;33.28;;;;;;;7.11;84.62;102439.97;4933218;29;20561;-56